Time;durP1;ratioP1;P1;durP2;ratioP2;P2;SDS_P1;SDS_P2;PMS_P1;PMS_P2;Temp;Humidity;BMP_temperature;BMP_pressure;BME280_temperature;BME280_humidity;BME280_pressure;Samples;Min_cycle;Max_cycle;Signal;HPM_P1;HPM_P2
2024/04/06 00:01:18;;;;;;;4.97;2.35;;;;;;;12.79;100.00;100921.25;6226258;28;20042;-76
2024/04/06 00:04:19;;;;;;;2.78;2.03;;;;;;;12.77;100.00;100923.13;6226567;28;20042;-76
2024/04/06 00:07:20;;;;;;;5.97;2.30;;;;;;;12.74;100.00;100914.56;6226373;28;20057;-76
2024/04/06 00:10:22;;;;;;;2.92;2.00;;;;;;;12.72;100.00;100917.28;6226557;28;20340;-76
2024/04/06 00:13:23;;;;;;;3.42;2.10;;;;;;;12.67;100.00;100920.22;6226412;28;20057;-76
2024/04/06 00:16:24;;;;;;;5.00;3.13;;;;;;;12.71;100.00;100939.31;6226292;28;20461;-77
2024/04/06 00:19:25;;;;;;;7.10;2.58;;;;;;;12.81;100.00;100939.59;6226357;28;20057;-76
2024/04/06 00:22:27;;;;;;;4.22;2.40;;;;;;;12.79;100.00;100941.50;6226251;28;20045;-77
2024/04/06 00:25:29;;;;;;;6.60;2.72;;;;;;;12.74;100.00;100944.41;6226512;28;20053;-77
2024/04/06 00:28:34;;;;;;;5.78;2.50;;;;;;;12.74;100.00;100954.97;6226054;28;20042;-76
2024/04/06 00:31:35;;;;;;;5.05;2.55;;;;;;;12.73;100.00;100958.53;6211979;28;20047;-76
2024/04/06 00:34:35;;;;;;;3.78;2.60;;;;;;;12.75;100.00;100956.66;6225837;28;20042;-76
2024/04/06 00:37:37;;;;;;;4.35;2.67;;;;;;;12.76;100.00;100958.34;6226098;28;20041;-76
2024/04/06 00:40:38;;;;;;;6.43;2.47;;;;;;;12.72;100.00;100948.06;6225080;28;20054;-77
2024/04/06 00:43:40;;;;;;;9.40;3.58;;;;;;;12.67;100.00;100953.59;6226056;28;20427;-76
2024/04/06 00:46:40;;;;;;;6.50;2.35;;;;;;;12.62;100.00;100947.75;6226138;28;20050;-76
2024/04/06 00:49:41;;;;;;;3.70;2.50;;;;;;;12.58;100.00;100949.75;6225964;28;20076;-76
2024/04/06 00:52:42;;;;;;;5.28;2.55;;;;;;;12.54;100.00;100937.69;6225612;28;20049;-76
2024/04/06 00:55:45;;;;;;;4.00;2.30;;;;;;;12.50;100.00;100945.84;6225520;28;20056;-76
2024/04/06 00:58:45;;;;;;;4.47;2.72;;;;;;;12.52;100.00;100954.50;6225775;28;20054;-76
2024/04/06 01:01:47;;;;;;;4.38;2.63;;;;;;;12.47;100.00;100956.56;6225320;28;20045;-76
2024/04/06 01:04:48;;;;;;;5.93;3.20;;;;;;;12.52;100.00;100958.00;6225498;28;20042;-77
2024/04/06 01:07:49;;;;;;;4.10;2.75;;;;;;;12.53;100.00;100964.97;6225604;28;20046;-76
2024/04/06 01:10:52;;;;;;;6.45;2.55;;;;;;;12.47;100.00;100954.78;6225453;28;20045;-76
2024/04/06 01:13:52;;;;;;;5.03;3.08;;;;;;;12.46;100.00;100949.59;6225170;28;20042;-76
2024/04/06 01:16:53;;;;;;;7.85;2.80;;;;;;;12.44;100.00;100957.59;6225507;28;20053;-76
2024/04/06 01:19:54;;;;;;;6.32;3.08;;;;;;;12.51;100.00;100961.56;6225502;28;20052;-76
2024/04/06 01:22:55;;;;;;;4.70;3.20;;;;;;;12.54;100.00;100950.88;6225420;28;20054;-76
2024/04/06 01:25:57;;;;;;;5.88;3.22;;;;;;;12.56;100.00;100948.13;6225305;28;20061;-76
2024/04/06 01:28:59;;;;;;;7.28;3.13;;;;;;;12.53;100.00;100949.13;6225122;28;20189;-76
2024/04/06 01:31:59;;;;;;;5.10;2.67;;;;;;;12.52;100.00;100950.09;6225179;28;20045;-76
2024/04/06 01:35:00;;;;;;;9.18;3.17;;;;;;;12.55;100.00;100962.25;6225177;28;20457;-76
2024/04/06 01:38:01;;;;;;;6.47;2.97;;;;;;;12.57;100.00;100966.47;6225176;28;20046;-76
2024/04/06 01:41:04;;;;;;;4.50;3.17;;;;;;;12.61;100.00;100962.72;6225019;28;20053;-77
2024/04/06 01:44:06;;;;;;;4.22;2.65;;;;;;;12.65;100.00;100974.81;6225055;28;20041;-76
2024/04/06 01:47:07;;;;;;;5.10;2.85;;;;;;;12.73;100.00;100973.53;6224893;28;20050;-76
2024/04/06 01:50:08;;;;;;;6.30;2.80;;;;;;;12.85;100.00;100967.50;6205576;28;20050;-76
2024/04/06 01:53:10;;;;;;;7.22;3.35;;;;;;;12.88;100.00;100978.72;6210808;28;20057;-76
2024/04/06 01:56:12;;;;;;;4.65;2.67;;;;;;;12.87;100.00;100970.91;6229156;28;20447;-77
2024/04/06 01:59:13;;;;;;;9.13;3.20;;;;;;;12.89;100.00;100963.75;6206561;28;20431;-76
2024/04/06 02:02:14;;;;;;;3.80;2.28;;;;;;;12.84;100.00;100971.94;6227704;28;20049;-76
2024/04/06 02:05:15;;;;;;;9.00;2.90;;;;;;;12.71;100.00;100973.59;6229375;28;20046;-76
2024/04/06 02:08:16;;;;;;;4.25;2.15;;;;;;;12.63;100.00;100978.47;6229117;28;20049;-77
2024/04/06 02:11:18;;;;;;;5.68;2.63;;;;;;;12.60;100.00;100973.38;6229032;28;20046;-76
2024/04/06 02:14:20;;;;;;;3.28;2.40;;;;;;;12.52;100.00;100978.25;6228854;28;20046;-76
2024/04/06 02:17:20;;;;;;;6.03;2.90;;;;;;;12.46;100.00;100982.09;6229028;28;20049;-77
2024/04/06 02:20:22;;;;;;;4.30;2.20;;;;;;;12.40;100.00;100983.28;6228678;28;20410;-76
2024/04/06 02:23:22;;;;;;;11.20;2.72;;;;;;;12.39;100.00;100984.22;6228849;28;20454;-76
2024/04/06 02:26:25;;;;;;;5.32;2.92;;;;;;;12.40;100.00;100974.53;6228683;28;20050;-76
2024/04/06 02:29:25;;;;;;;7.93;2.63;;;;;;;12.42;100.00;100977.91;6228645;28;20046;-76
2024/04/06 02:32:28;;;;;;;6.93;3.15;;;;;;;12.41;100.00;100982.34;6208407;28;20046;-76
2024/04/06 02:35:28;;;;;;;5.50;3.53;;;;;;;12.40;100.00;100982.44;6228541;28;20042;-76
2024/04/06 02:38:30;;;;;;;8.13;2.90;;;;;;;12.38;100.00;100979.88;6228439;28;20108;-76
2024/04/06 02:41:31;;;;;;;3.85;2.13;;;;;;;12.38;100.00;100979.03;6228542;28;20041;-76
2024/04/06 02:44:33;;;;;;;8.30;2.67;;;;;;;12.40;100.00;100982.44;6222532;28;20066;-76
2024/04/06 02:47:34;;;;;;;5.45;2.47;;;;;;;12.42;100.00;100975.28;6222984;28;20046;-76
2024/04/06 02:50:35;;;;;;;4.05;2.30;;;;;;;12.40;100.00;100975.38;6228012;28;20451;-77
2024/04/06 02:53:36;;;;;;;3.13;2.05;;;;;;;12.39;100.00;100975.44;6227847;28;20054;-76
2024/04/06 02:56:38;;;;;;;6.57;2.50;;;;;;;12.42;100.00;100978.78;6228076;28;20053;-76
2024/04/06 02:59:39;;;;;;;2.85;2.00;;;;;;;12.37;100.00;100977.34;6227918;28;20046;-76
2024/04/06 03:02:41;;;;;;;5.38;2.53;;;;;;;12.33;100.00;100983.72;6227021;28;20053;-76
2024/04/06 03:05:41;;;;;;;4.60;2.35;;;;;;;12.28;100.00;100983.97;6227700;28;20049;-76
2024/04/06 03:08:43;;;;;;;9.15;3.38;;;;;;;12.26;100.00;100987.63;6227935;28;20050;-76
2024/04/06 03:11:45;;;;;;;4.00;2.17;;;;;;;12.27;100.00;100986.72;6227501;28;20132;-76
2024/04/06 03:14:46;;;;;;;7.22;1.90;;;;;;;12.23;100.00;100985.19;6227787;28;20057;-76
2024/04/06 03:17:46;;;;;;;4.95;2.25;;;;;;;12.22;100.00;100988.72;6227517;28;20057;-76
2024/04/06 03:20:48;;;;;;;4.20;1.75;;;;;;;12.20;100.00;100988.81;6227232;28;20046;-77
2024/04/06 03:23:48;;;;;;;4.72;2.67;;;;;;;12.14;100.00;100990.03;6227416;28;20045;-76
2024/04/06 03:26:52;;;;;;;2.42;1.75;;;;;;;12.14;100.00;100997.09;6227201;28;20096;-76
2024/04/06 03:29:52;;;;;;;4.32;2.83;;;;;;;12.12;100.00;100998.94;6227348;28;20056;-76
2024/04/06 03:32:54;;;;;;;3.65;2.13;;;;;;;12.14;100.00;100994.44;6227088;28;20049;-76
2024/04/06 03:35:54;;;;;;;3.10;1.77;;;;;;;12.24;100.00;101002.69;6227085;28;20431;-77
2024/04/06 03:38:56;;;;;;;3.63;2.05;;;;;;;12.27;100.00;101005.16;6226977;28;20070;-76
2024/04/06 03:41:58;;;;;;;2.90;1.90;;;;;;;12.33;100.00;101003.00;6210772;28;20049;-76
2024/04/06 03:44:59;;;;;;;4.72;2.30;;;;;;;12.30;100.00;101013.72;6226753;28;20129;-76
2024/04/06 03:48:01;;;;;;;2.83;2.10;;;;;;;12.26;100.00;100999.00;6227226;28;20630;-76
2024/04/06 03:51:01;;;;;;;5.75;2.13;;;;;;;12.27;100.00;101002.53;6227038;28;20050;-76
2024/04/06 03:54:02;;;;;;;6.53;3.28;;;;;;;12.26;100.00;101012.19;6226645;28;20073;-76
2024/04/06 03:57:04;;;;;;;4.82;2.20;;;;;;;12.25;100.00;101004.38;6224018;28;20046;-76
2024/04/06 04:00:08;;;;;;;2.33;1.98;;;;;;;12.26;100.00;100991.09;6202042;28;20054;-76
2024/04/06 04:03:09;;;;;;;5.45;2.50;;;;;;;12.34;100.00;100991.53;6201966;28;20397;-76
2024/04/06 04:06:10;;;;;;;3.75;2.20;;;;;;;12.32;100.00;101001.31;6215853;28;20042;-76
2024/04/06 04:09:15;;;;;;;4.15;1.80;;;;;;;12.37;100.00;100996.63;6226482;28;20052;-76
2024/04/06 04:12:17;;;;;;;5.50;2.33;;;;;;;12.38;100.00;100992.22;6226175;28;20045;-76
2024/04/06 04:15:19;;;;;;;2.63;1.85;;;;;;;12.40;100.00;100993.84;6226223;28;20046;-76
2024/04/06 04:18:20;;;;;;;4.75;2.17;;;;;;;12.38;100.00;100990.41;6226201;28;20172;-76
2024/04/06 04:21:21;;;;;;;5.97;1.75;;;;;;;12.38;100.00;100990.41;6226299;28;20052;-76
2024/04/06 04:24:22;;;;;;;4.43;1.80;;;;;;;12.33;100.00;100986.34;6226142;28;20042;-76
2024/04/06 04:27:24;;;;;;;3.22;1.92;;;;;;;12.37;100.00;100978.19;6226419;28;20057;-76
2024/04/06 04:30:25;;;;;;;3.75;1.90;;;;;;;12.34;100.00;100974.88;6225769;28;20446;-76
2024/04/06 04:33:26;;;;;;;2.38;1.50;;;;;;;12.37;100.00;100967.66;6225950;28;20049;-76
2024/04/06 04:36:27;;;;;;;2.50;1.55;;;;;;;12.42;100.00;100962.97;6226058;28;20073;-76
2024/04/06 04:39:28;;;;;;;6.15;1.77;;;;;;;12.46;100.00;100963.63;6225798;28;20053;-76
2024/04/06 04:42:30;;;;;;;3.13;1.83;;;;;;;12.48;100.00;100968.81;6225930;28;20354;-76
2024/04/06 04:45:31;;;;;;;2.85;1.67;;;;;;;12.50;100.00;100959.03;6199128;28;20045;-76
2024/04/06 04:48:34;;;;;;;2.85;1.88;;;;;;;12.51;100.00;100966.00;6201505;28;20359;-76
2024/04/06 04:51:34;;;;;;;3.88;2.08;;;;;;;12.52;100.00;100967.69;6201127;28;20168;-76
2024/04/06 04:54:36;;;;;;;5.78;1.88;;;;;;;12.50;100.00;100965.16;6218666;28;20352;-76
2024/04/06 04:57:37;;;;;;;2.40;1.58;;;;;;;12.49;100.00;100984.56;6222769;28;20073;-76
2024/04/06 05:00:39;;;;;;;3.13;1.58;;;;;;;12.50;100.00;100977.50;6202429;28;20346;-76
2024/04/06 05:03:39;;;;;;;6.30;2.38;;;;;;;12.49;100.00;100984.56;6225663;28;20050;-76
2024/04/06 05:06:41;;;;;;;5.13;1.63;;;;;;;12.52;100.00;100980.88;6225622;28;20046;-76
2024/04/06 05:09:41;;;;;;;3.00;2.00;;;;;;;12.51;100.00;100980.03;6225739;28;20443;-76
2024/04/06 05:12:44;;;;;;;2.85;1.33;;;;;;;12.53;100.00;100986.06;6225306;28;20054;-76
2024/04/06 05:15:48;;;;;;;2.92;1.70;;;;;;;12.53;100.00;100987.84;6225693;28;20053;-75
2024/04/06 05:18:49;;;;;;;4.10;2.28;;;;;;;12.56;100.00;100996.44;6217297;28;20449;-75
2024/04/06 05:21:50;;;;;;;4.18;1.77;;;;;;;12.57;100.00;100995.47;6209038;28;20042;-75
2024/04/06 05:24:51;;;;;;;1.58;1.38;;;;;;;12.62;100.00;101003.13;6200935;28;20057;-75
2024/04/06 05:27:53;;;;;;;2.55;1.65;;;;;;;12.69;100.00;101001.84;6205075;28;20062;-75
2024/04/06 05:30:54;;;;;;;3.13;1.70;;;;;;;12.72;100.00;100998.16;6209227;28;20057;-75
2024/04/06 05:33:55;;;;;;;2.00;1.50;;;;;;;12.75;100.00;101014.66;6217244;28;20049;-75
2024/04/06 05:36:56;;;;;;;3.50;1.42;;;;;;;12.79;100.00;101015.34;6229928;28;20370;-76
2024/04/06 05:39:56;;;;;;;2.58;1.60;;;;;;;12.86;100.00;101033.38;6213710;28;20050;-75
2024/04/06 05:42:59;;;;;;;3.15;1.65;;;;;;;12.87;100.00;101040.34;6217540;28;20450;-75
2024/04/06 05:46:03;;;;;;;3.97;2.00;;;;;;;12.92;100.00;101050.63;6216522;28;20049;-75
2024/04/06 05:49:05;;;;;;;3.67;1.95;;;;;;;12.98;100.00;101057.31;6229899;28;20088;-75
2024/04/06 05:52:06;;;;;;;4.70;1.80;;;;;;;12.97;100.00;101051.19;6229382;28;20172;-80
2024/04/06 05:55:07;;;;;;;4.68;1.80;;;;;;;12.97;100.00;101056.47;6216326;28;20042;-80
2024/04/06 05:58:09;;;;;;;4.00;1.95;;;;;;;12.98;100.00;101059.97;6226749;28;20049;-76
2024/04/06 06:01:11;;;;;;;5.40;1.67;;;;;;;12.98;100.00;101067.88;6229120;28;20449;-76
2024/04/06 06:04:12;;;;;;;3.90;2.00;;;;;;;12.93;100.00;101066.34;6229284;28;20192;-76
2024/04/06 06:07:13;;;;;;;6.85;1.95;;;;;;;12.97;100.00;101068.81;6229096;28;20050;-75
2024/04/06 06:10:14;;;;;;;2.15;1.70;;;;;;;12.95;100.00;101072.41;6212289;28;20130;-75
2024/04/06 06:13:17;;;;;;;3.20;2.13;;;;;;;13.02;100.00;101057.06;6204535;28;20371;-75
2024/04/06 06:16:18;;;;;;;2.70;1.65;;;;;;;13.06;100.00;101065.66;6204266;28;20058;-75
2024/04/06 06:19:19;;;;;;;7.30;1.70;;;;;;;13.12;100.00;101052.94;6227404;28;20129;-76
2024/04/06 06:22:19;;;;;;;3.92;1.75;;;;;;;13.15;100.00;101062.47;6229001;28;20042;-75
2024/04/06 06:25:21;;;;;;;4.95;2.00;;;;;;;13.23;100.00;101065.53;6228618;28;20042;-75
2024/04/06 06:28:22;;;;;;;4.75;1.35;;;;;;;13.33;100.00;101063.19;6228992;28;20046;-75
2024/04/06 06:31:24;;;;;;;4.82;1.65;;;;;;;13.47;100.00;101067.66;6228557;28;20469;-75
2024/04/06 06:34:24;;;;;;;4.03;1.30;;;;;;;13.55;100.00;101058.31;6228505;28;20431;-75
2024/04/06 06:37:25;;;;;;;2.47;1.17;;;;;;;13.65;100.00;101069.16;6227348;28;20049;-76
2024/04/06 06:40:26;;;;;;;2.15;1.48;;;;;;;13.73;100.00;101063.44;6228248;28;20469;-75
2024/04/06 06:43:29;;;;;;;5.10;1.73;;;;;;;13.79;100.00;101063.03;6228619;28;20045;-75
2024/04/06 06:46:30;;;;;;;1.48;0.90;;;;;;;13.91;100.00;101067.56;6228021;28;20049;-75
2024/04/06 06:49:31;;;;;;;4.68;1.20;;;;;;;14.02;100.00;101072.19;6228473;28;20072;-75
2024/04/06 06:52:32;;;;;;;2.45;0.93;;;;;;;14.04;100.00;101073.78;6228008;28;20046;-75
2024/04/06 06:55:34;;;;;;;1.65;1.00;;;;;;;14.21;100.00;101088.56;6228113;28;20041;-76
2024/04/06 06:58:36;;;;;;;1.60;0.93;;;;;;;14.29;100.00;101088.94;6228066;28;20038;-76
2024/04/06 07:01:38;;;;;;;1.95;0.90;;;;;;;14.36;100.00;101082.34;6227734;28;20052;-75
2024/04/06 07:04:38;;;;;;;1.50;0.90;;;;;;;14.40;100.00;101083.00;6227876;28;20354;-76
2024/04/06 07:07:40;;;;;;;2.88;1.20;;;;;;;14.37;100.00;101078.75;6227714;28;20069;-75
2024/04/06 07:10:40;;;;;;;2.92;1.20;;;;;;;14.35;100.00;101072.72;6227754;28;20050;-75
2024/04/06 07:13:43;;;;;;;0.95;0.73;;;;;;;14.46;100.00;101077.31;6225076;28;20049;-75
2024/04/06 07:16:43;;;;;;;1.27;1.10;;;;;;;14.56;100.00;101072.28;6227617;28;20046;-75
2024/04/06 07:19:45;;;;;;;1.92;1.20;;;;;;;14.58;100.00;101065.09;6223535;28;20061;-75
2024/04/06 07:22:45;;;;;;;2.05;0.85;;;;;;;14.68;100.00;101066.22;6212461;28;20056;-75
2024/04/06 07:25:46;;;;;;;1.75;0.80;;;;;;;14.77;100.00;101054.19;6227287;28;20050;-75
2024/04/06 07:28:49;;;;;;;1.77;0.82;;;;;;;14.86;100.00;101053.56;6227585;28;20065;-75
2024/04/06 07:31:49;;;;;;;6.55;1.48;;;;;;;15.11;100.00;101055.41;6224671;28;20050;-75
2024/04/06 07:34:51;;;;;;;3.58;1.02;;;;;;;15.33;100.00;101041.56;6213305;28;20708;-75
2024/04/06 07:37:52;;;;;;;1.65;1.00;;;;;;;15.48;100.00;101030.75;6227146;28;20057;-75
2024/04/06 07:40:56;;;;;;;1.48;0.73;;;;;;;15.67;100.00;101040.97;6226932;28;20049;-75
2024/04/06 07:43:58;;;;;;;6.45;1.20;;;;;;;15.81;100.00;101049.75;6226801;28;20330;-76
2024/04/06 07:46:59;;;;;;;1.73;0.80;;;;;;;15.98;100.00;101044.09;6225833;28;20042;-75
2024/04/06 07:50:00;;;;;;;2.08;0.80;;;;;;;16.07;100.00;101037.28;6225618;28;20057;-75
2024/04/06 07:53:00;;;;;;;0.80;0.63;;;;;;;16.16;100.00;101045.41;6225650;28;20049;-75
2024/04/06 07:56:02;;;;;;;0.77;0.57;;;;;;;16.27;100.00;101044.66;6225700;28;20076;-75
2024/04/06 07:59:03;;;;;;;0.75;0.60;;;;;;;16.37;100.00;101055.44;6225775;28;20053;-75
2024/04/06 08:02:05;;;;;;;1.65;0.73;;;;;;;16.40;100.00;101034.88;6225705;28;20050;-75
2024/04/06 08:05:07;;;;;;;1.17;0.70;;;;;;;16.38;100.00;101043.88;6225477;28;20336;-75
2024/04/06 08:08:09;;;;;;;1.17;0.80;;;;;;;16.34;100.00;101045.06;6217351;28;20060;-76
2024/04/06 08:11:09;;;;;;;1.27;1.05;;;;;;;16.38;100.00;101043.88;6225944;28;20050;-76
2024/04/06 08:14:12;;;;;;;3.13;1.00;;;;;;;16.27;100.00;101043.81;6225131;28;20319;-76
2024/04/06 08:17:12;;;;;;;2.97;1.02;;;;;;;16.23;100.00;101045.84;6220436;28;20042;-76
2024/04/06 08:20:13;;;;;;;3.00;1.00;;;;;;;16.19;100.00;101041.72;6208989;28;20073;-78
2024/04/06 08:23:17;;;;;;;1.20;0.70;;;;;;;16.14;100.00;101038.56;6200917;28;20050;-75
2024/04/06 08:26:18;;;;;;;1.30;0.73;;;;;;;16.14;100.00;101044.69;6200185;28;20100;-76
2024/04/06 08:29:21;;;;;;;2.45;0.60;;;;;;;16.16;100.00;101044.56;6198349;28;20050;-75
2024/04/06 08:32:22;;;;;;;2.72;0.77;;;;;;;16.14;100.00;101034.09;6199217;28;20046;-78
2024/04/06 08:35:22;;;;;;;2.63;0.80;;;;;;;16.23;100.00;101025.47;6207370;28;20046;-78
2024/04/06 08:38:24;;;;;;;4.30;1.05;;;;;;;16.26;100.00;101029.72;6200821;28;20429;-78
2024/04/06 08:41:24;;;;;;;1.75;0.93;;;;;;;16.31;100.00;101016.97;6207485;28;20045;-78
2024/04/06 08:44:38;;;;;;;2.53;0.80;;;;;;;16.37;100.00;101010.34;6190839;28;993457;-79
2024/04/06 08:47:40;;;;;;;1.70;0.70;;;;;;;16.44;100.00;101009.81;6225787;28;20057;-78
2024/04/06 08:50:42;;;;;;;1.48;0.95;;;;;;;16.48;100.00;101019.19;6225812;28;20111;-78
2024/04/06 08:53:43;;;;;;;2.40;0.85;;;;;;;16.55;100.00;101021.44;6225591;28;20050;-78
2024/04/06 08:56:45;;;;;;;4.00;0.77;;;;;;;16.69;100.00;101021.25;6225762;28;20053;-78
2024/04/06 08:59:48;;;;;;;2.40;0.80;;;;;;;16.76;100.00;101011.03;6225678;28;20054;-79
2024/04/06 09:02:49;;;;;;;1.17;0.70;;;;;;;16.78;100.00;101004.66;6229836;28;20050;-79
2024/04/06 09:05:50;;;;;;;3.00;1.00;;;;;;;16.84;100.00;100998.88;6230431;28;20435;-80
2024/04/06 09:08:52;;;;;;;2.78;0.60;;;;;;;16.94;100.00;101010.50;6230829;28;20056;-76
2024/04/06 09:11:52;;;;;;;0.77;0.63;;;;;;;16.96;100.00;101005.06;6230634;28;20061;-76
2024/04/06 09:14:55;;;;;;;1.00;0.80;;;;;;;17.11;100.00;101003.91;6230098;28;20423;-77
2024/04/06 09:18:01;;;;;;;1.58;0.65;;;;;;;17.19;100.00;101003.31;6230224;28;20336;-77
2024/04/06 09:21:04;;;;;;;1.80;0.65;;;;;;;17.23;100.00;100992.34;6214902;28;20045;-76
2024/04/06 09:24:05;;;;;;;2.08;0.68;;;;;;;17.34;100.00;100998.63;6197365;28;20054;-77
2024/04/06 09:27:08;;;;;;;4.50;0.88;;;;;;;17.46;100.00;101003.84;6206177;28;20046;-76
2024/04/06 09:30:11;;;;;;;0.82;0.68;;;;;;;17.65;100.00;101007.69;6200076;28;20070;-80
2024/04/06 09:33:15;;;;;;;2.58;0.80;;;;;;;17.68;100.00;101010.13;6201819;28;20058;-77
2024/04/06 09:36:17;;;;;;;0.77;0.40;;;;;;;17.70;100.00;101010.84;6205468;28;20197;-77
2024/04/06 09:39:17;;;;;;;0.93;0.60;;;;;;;17.80;100.00;101011.81;6221437;28;20378;-77
2024/04/06 09:42:20;;;;;;;2.55;0.70;;;;;;;17.91;100.00;101006.50;6202349;28;20057;-77
2024/04/06 09:45:23;;;;;;;1.65;0.68;;;;;;;17.91;100.00;100998.53;6199333;28;20457;-77
2024/04/06 09:48:28;;;;;;;1.67;0.70;;;;;;;17.93;100.00;101003.72;6204061;28;20336;-77
2024/04/06 09:51:29;;;;;;;4.65;0.70;;;;;;;18.00;100.00;101004.94;6211713;28;20046;-77
2024/04/06 09:54:31;;;;;;;0.88;0.50;;;;;;;18.09;100.00;101012.16;6211880;28;20050;-77
2024/04/06 09:57:35;;;;;;;0.47;0.30;;;;;;;18.18;100.00;101011.44;6204871;28;20069;-77
2024/04/06 10:00:38;;;;;;;1.60;0.50;;;;;;;18.36;100.00;101016.22;6202660;28;20050;-76
2024/04/06 10:03:44;;;;;;;0.88;0.52;;;;;;;18.43;100.00;101007.59;6194241;28;20082;-76
2024/04/06 10:06:46;;;;;;;0.68;0.50;;;;;;;18.62;100.00;101014.06;6204452;28;20047;-76
2024/04/06 10:09:46;;;;;;;0.73;0.40;;;;;;;18.78;100.00;101005.69;6214853;28;20046;-76
2024/04/06 10:12:48;;;;;;;0.90;0.77;;;;;;;18.80;100.00;101001.91;6228707;28;20364;-76
2024/04/06 10:15:51;;;;;;;0.90;0.50;;;;;;;18.84;100.00;101003.34;6210922;28;20061;-76
2024/04/06 10:18:54;;;;;;;0.90;0.52;;;;;;;18.69;100.00;101007.28;6186849;28;20331;-78
2024/04/06 10:22:02;;;;;;;1.20;1.00;;;;;;;18.68;100.00;101001.09;6202247;28;20482;-76
2024/04/06 10:25:08;;;;;;;1.40;0.90;;;;;;;18.64;100.00;100993.50;6201610;28;20047;-76
2024/04/06 10:28:11;;;;;;;1.00;0.60;;;;;;;18.63;100.00;100989.16;6215343;28;20045;-78
2024/04/06 10:31:13;;;;;;;0.70;0.60;;;;;;;18.59;100.00;100988.56;6227518;28;20077;-78
2024/04/06 10:34:16;;;;;;;0.70;0.57;;;;;;;18.55;100.00;100988.94;6227775;28;20052;-78
2024/04/06 10:37:16;;;;;;;2.63;1.02;;;;;;;18.60;100.00;100984.06;6227357;28;20078;-79
2024/04/06 10:40:18;;;;;;;1.92;0.82;;;;;;;18.81;100.00;100978.81;6227754;28;20397;-78
2024/04/06 10:43:18;;;;;;;1.15;0.80;;;;;;;18.87;100.00;100963.16;6228429;28;20045;-78
2024/04/06 10:46:21;;;;;;;0.80;0.63;;;;;;;19.14;100.00;100965.28;6227824;28;20418;-79
2024/04/06 10:49:22;;;;;;;1.00;0.73;;;;;;;19.23;100.00;100952.97;6228333;28;20060;-78
2024/04/06 10:52:23;;;;;;;0.98;0.47;;;;;;;19.34;100.00;100949.38;6227828;28;20053;-78
2024/04/06 10:55:26;;;;;;;2.42;0.65;;;;;;;19.52;100.00;100939.75;6228035;28;20053;-78
2024/04/06 10:58:27;;;;;;;2.67;0.80;;;;;;;19.47;100.00;100942.00;6227615;28;20081;-78
2024/04/06 11:01:34;;;;;;;2.22;0.75;;;;;;;19.56;100.00;100927.03;6227883;28;20054;-79
2024/04/06 11:04:40;;;;;;;0.52;0.50;;;;;;;19.66;100.00;100933.25;6227637;28;20129;-79
2024/04/06 11:07:41;;;;;;;2.58;0.80;;;;;;;19.82;100.00;100940.75;6227799;28;20050;-76
2024/04/06 11:10:43;;;;;;;1.00;0.63;;;;;;;19.91;100.00;100930.09;6227530;28;20050;-76
2024/04/06 11:13:43;;;;;;;1.60;0.63;;;;;;;19.90;100.00;100916.91;6228079;28;20057;-76
2024/04/06 11:16:46;;;;;;;1.08;0.55;;;;;;;19.92;100.00;100914.94;6227592;28;20042;-79
2024/04/06 11:19:52;;;;;;;1.88;0.60;;;;;;;20.35;100.00;100911.88;6227376;28;20446;-76
2024/04/06 11:22:54;;;;;;;0.65;0.52;;;;;;;20.68;100.00;100902.59;6227232;28;20050;-76
2024/04/06 11:26:00;;;;;;;3.22;0.73;;;;;;;20.87;100.00;100899.03;6226777;28;20046;-76
2024/04/06 11:29:02;;;;;;;1.17;0.52;;;;;;;20.91;100.00;100895.09;6226749;28;20419;-76
2024/04/06 11:32:04;;;;;;;2.30;0.57;;;;;;;21.06;100.00;100890.09;6219460;28;20054;-76
2024/04/06 11:35:06;;;;;;;2.33;0.82;;;;;;;21.00;100.00;100894.22;6202636;28;20049;-77
2024/04/06 11:38:07;;;;;;;1.25;0.80;;;;;;;21.40;100.00;100881.56;6202052;28;20057;-77
2024/04/06 11:41:08;;;;;;;0.80;0.60;;;;;;;21.53;100.00;100882.06;6202629;28;20050;-77
2024/04/06 11:44:09;;;;;;;2.22;0.80;;;;;;;21.59;100.00;100876.09;6214702;28;20082;-76
2024/04/06 11:47:12;;;;;;;0.98;0.60;;;;;;;21.90;100.00;100879.28;6226930;28;20049;-76
2024/04/06 11:50:12;;;;;;;0.82;0.63;;;;;;;22.15;100.00;100866.97;6221185;28;20050;-77
2024/04/06 11:53:15;;;;;;;1.45;0.90;;;;;;;22.42;100.00;100862.53;6226472;28;20073;-79
2024/04/06 11:56:17;;;;;;;1.58;0.60;;;;;;;22.54;100.00;100858.59;6226528;28;20050;-76
2024/04/06 11:59:18;;;;;;;0.93;0.80;;;;;;;22.50;100.00;100849.19;6221669;28;20064;-77
2024/04/06 12:02:21;;;;;;;0.68;0.52;;;;;;;22.65;100.00;100844.09;6197492;28;20374;-76
2024/04/06 12:05:22;;;;;;;2.38;0.80;;;;;;;22.94;100.00;100852.69;6207349;28;20064;-76
2024/04/06 12:08:23;;;;;;;1.50;0.80;;;;;;;23.48;100.00;100855.06;6208345;28;20042;-76
2024/04/06 12:11:23;;;;;;;1.65;0.93;;;;;;;23.69;94.40;100843.94;6226340;28;20054;-77
2024/04/06 12:14:25;;;;;;;2.83;0.73;;;;;;;23.94;92.12;100845.66;6226478;28;20050;-77
2024/04/06 12:17:27;;;;;;;2.28;0.88;;;;;;;23.86;88.11;100848.31;6225934;28;20324;-76
2024/04/06 12:20:28;;;;;;;1.52;0.50;;;;;;;24.17;86.71;100829.72;6225919;28;20434;-76
2024/04/06 12:23:29;;;;;;;2.35;0.77;;;;;;;24.40;80.90;100831.75;6226371;28;20041;-77
2024/04/06 12:26:30;;;;;;;2.03;0.90;;;;;;;24.68;73.41;100824.97;6225812;28;20049;-76
2024/04/06 12:29:31;;;;;;;1.73;0.77;;;;;;;24.93;74.54;100830.25;6225319;28;20049;-76
2024/04/06 12:32:33;;;;;;;3.47;0.82;;;;;;;24.87;70.33;100817.53;6225688;28;20046;-77
2024/04/06 12:35:34;;;;;;;1.48;0.60;;;;;;;24.70;70.67;100817.56;6215952;28;20359;-77
2024/04/06 12:38:36;;;;;;;1.73;0.73;;;;;;;24.72;71.04;100822.78;6203305;28;20085;-77
2024/04/06 12:41:36;;;;;;;0.90;0.60;;;;;;;24.65;72.94;100822.63;6201379;28;20053;-77
2024/04/06 12:44:37;;;;;;;3.65;0.90;;;;;;;24.65;69.17;100811.03;6217127;28;20057;-77
2024/04/06 12:47:39;;;;;;;1.02;0.60;;;;;;;24.50;69.79;100811.75;6195852;28;20057;-77
2024/04/06 12:50:44;;;;;;;2.15;0.80;;;;;;;24.34;73.97;100798.28;6201420;28;20073;-77
2024/04/06 12:53:44;;;;;;;1.48;0.63;;;;;;;24.20;71.82;100805.19;6208391;28;20054;-77
2024/04/06 13:00:06;;;;;;;1.83;0.70;;;;;;;24.12;70.23;100813.28;6210084;28;20046;-77
2024/04/06 13:03:08;;;;;;;1.15;0.60;;;;;;;23.89;71.14;100815.78;6201032;28;20046;-77
2024/04/06 13:06:10;;;;;;;1.35;0.90;;;;;;;23.61;73.30;100799.09;6221483;28;20133;-77
2024/04/06 13:09:10;;;;;;;2.05;0.88;;;;;;;23.36;74.01;100794.69;6225465;28;20346;-77
2024/04/06 13:12:12;;;;;;;2.05;0.90;;;;;;;23.11;74.49;100796.44;6225147;28;20074;-77
2024/04/06 13:15:13;;;;;;;1.75;0.80;;;;;;;23.02;76.13;100787.53;6225283;28;20056;-77
2024/04/06 13:18:16;;;;;;;1.58;0.90;;;;;;;22.84;76.35;100771.50;6225394;28;20443;-77
2024/04/06 13:21:16;;;;;;;1.60;0.77;;;;;;;22.71;76.61;100763.94;6225530;28;20060;-77
2024/04/06 13:24:20;;;;;;;0.55;0.55;;;;;;;22.63;79.50;100765.75;6225305;28;20438;-79
2024/04/06 13:27:20;;;;;;;2.90;0.90;;;;;;;22.68;82.21;100764.25;6225780;28;20121;-79
2024/04/06 13:30:22;;;;;;;1.38;0.80;;;;;;;22.87;81.19;100762.31;6224142;28;20046;-78
2024/04/06 13:33:23;;;;;;;5.47;0.95;;;;;;;22.98;83.41;100746.84;6225570;28;20045;-78
2024/04/06 13:36:26;;;;;;;1.95;0.80;;;;;;;22.96;79.05;100756.03;6216887;28;20361;-78
2024/04/06 13:39:27;;;;;;;5.28;2.40;;;;;;;23.11;80.68;100762.44;6200589;28;20054;-78
2024/04/06 13:42:27;;;;;;;4.25;1.25;;;;;;;23.34;79.62;100754.59;6215400;28;20129;-78
2024/04/06 13:45:29;;;;;;;1.33;0.70;;;;;;;23.58;76.42;100747.63;6224654;28;20045;-79
2024/04/06 13:48:31;;;;;;;0.57;0.50;;;;;;;23.76;77.18;100751.03;6219465;28;20053;-79
2024/04/06 13:51:32;;;;;;;1.52;0.80;;;;;;;23.84;77.17;100739.44;6204970;28;20046;-77
2024/04/06 13:54:36;;;;;;;1.67;1.05;;;;;;;23.74;74.75;100736.91;6212721;28;20046;-76
2024/04/06 13:57:37;;;;;;;1.63;0.55;;;;;;;23.87;73.17;100729.19;6228436;28;20041;-76
2024/04/06 14:00:40;;;;;;;1.52;0.65;;;;;;;23.92;72.25;100721.47;6229331;28;20493;-76